Terminal Aerodrome Forecast
Issued by NWS Mt. Holly, NJ

Home | Current Version | Previous Version | Text Only | Print | Product List | Glossary On
Versions: 1 2 3 4 5 6 7 8 9 10 11 12 13 14 15 16 17 18 19 20 21 22 23 24 25 26 27 28 29 30 31 32 33 34 35 36 37 38 39 40 41 42 43 44
000
FTAK31 PANC 260234 AAA
TAFABE
TAF AMD
PABE 260234Z 2603/2624 19015KT 6SM -SHSN OVC005
      TEMPO 2603/2606 2SM -SHSN OVC004
     FM260900 20010KT P6SM SCT005 BKN015
     FM261500 30009KT P6SM SCT015 BKN025
     FM261900 24007KT P6SM BCFG FEW003 SCT025 BKN035
     FM262300 17006KT P6SM SCT035 BKN100=

USA.gov is the U.S. government's official web portal to all federal, state and local government web resources and services.